Dades meteomassalio
Diari Summary for Setembre 23, 2017 Units:  English    Metric   Both
« Previous Day
Next Day »
Diari Semanal Mensual Anual Personalitzat
  Maxima: Minima: Mijana:
Temperatura: TemperatureC °F 10.0 °F 16.9 °F
Rosada: DewpointC °F 8.8 °F 12.4 °F
Humitat: Humidity % 39 % 77 %
Velocitat del vent: WindSpeedKMH mph 0.0 mph 2.6 mph
Racha vent: WindSpeedGustKMH mph - -
Vent:- - West
Pressio: PressurehPa in 1020.2 in -
Pluja: 0.0 in    
Historical Graphs
 
 
Tabular Data for Setembre 23, 2017
Time Temperature Dew Point Pressure Wind Wind Speed Wind Gust Humidity Rainfall Rate (Hourly) solar Conditions
TemperatureC °F DewpointC °F PressurehPa in Calm     Humidity % HourlyPrecipMM in SolarRadiationWatts/m^2 W/m2 Conditions
00:02 13.3 °F 11.9 °F 1023.9 in Calm     91 % 0.0 in 0.0 W/m2 RA
00:07 13.3 °F 11.9 °F 1023.9 in Calm     91 % 0.0 in 0.0 W/m2 CLR
00:12 13.3 °F 11.9 °F 1023.6 in Calm     91 % 0.0 in 0.0 W/m2 CLR
00:17 13.3 °F 11.9 °F 1023.9 in Calm     91 % 0.0 in 0.0 W/m2 CLR
00:22 13.3 °F 11.9 °F 1023.9 in Calm     91 % 0.0 in 0.0 W/m2 CLR
00:27 13.3 °F 11.9 °F 1023.9 in Calm     91 % 0.0 in 0.0 W/m2 CLR
00:32 13.3 °F 11.9 °F 1023.9 in Calm     91 % 0.0 in 0.0 W/m2 CLR
00:37 13.3 °F 12.1 °F 1023.9 in SE 3.7 mph 3.7 mph 92 % 0.0 in 0.0 W/m2 CLR
00:42 13.3 °F 11.9 °F 1023.9 in Calm     91 % 0.0 in 0.0 W/m2 CLR
00:47 13.9 °F 12.4 °F 1023.9 in Calm     91 % 0.0 in 0.0 W/m2 CLR
00:52 13.3 °F 11.9 °F 1023.9 in Calm     91 % 0.0 in 0.0 W/m2 CLR
00:57 13.3 °F 11.9 °F 1023.9 in Calm     91 % 0.0 in 0.0 W/m2 CLR
01:02 13.3 °F 11.9 °F 1023.6 in Calm     91 % 0.0 in 0.0 W/m2 CLR
01:07 13.3 °F 11.9 °F 1023.6 in Calm     91 % 0.0 in 0.0 W/m2 CLR
01:12 13.3 °F 11.9 °F 1023.6 in Calm     91 % 0.0 in 0.0 W/m2 CLR
01:17 13.3 °F 11.9 °F 1023.6 in Calm     91 % 0.0 in 0.0 W/m2 CLR
01:22 13.3 °F 11.9 °F 1023.6 in Calm     91 % 0.0 in 0.0 W/m2 CLR
01:27 13.3 °F 11.9 °F 1023.6 in Calm     91 % 0.0 in 0.0 W/m2 CLR
01:32 13.3 °F 11.9 °F 1023.6 in Calm     91 % 0.0 in 0.0 W/m2 CLR
01:37 13.3 °F 11.9 °F 1023.2 in Calm     91 % 0.0 in 0.0 W/m2 CLR
01:42 12.8 °F 11.3 °F 1023.2 in Calm     91 % 0.0 in 0.0 W/m2 CLR
01:47 12.8 °F 11.3 °F 1023.2 in Calm     91 % 0.0 in 0.0 W/m2 CLR
01:52 12.8 °F 11.3 °F 1023.2 in Calm     91 % 0.0 in 0.0 W/m2 CLR
01:57 12.8 °F 11.3 °F 1023.2 in Calm     91 % 0.0 in 0.0 W/m2 CLR
02:02 12.8 °F 11.3 °F 1023.2 in Calm     91 % 0.0 in 0.0 W/m2 CLR
02:07 12.8 °F 11.3 °F 1022.9 in Calm     91 % 0.0 in 0.0 W/m2 CLR
02:12 12.2 °F 10.8 °F 1022.9 in Calm     91 % 0.0 in 0.0 W/m2 CLR
02:17 12.2 °F 10.8 °F 1022.9 in Calm     91 % 0.0 in 0.0 W/m2 CLR
02:22 12.2 °F 10.8 °F 1022.9 in Calm     91 % 0.0 in 0.0 W/m2 CLR
02:27 12.2 °F 10.8 °F 1022.9 in Calm     91 % 0.0 in 0.0 W/m2 CLR
02:32 12.2 °F 10.9 °F 1022.6 in NW 6.4 mph 6.4 mph 92 % 0.0 in 0.0 W/m2 CLR
02:37 12.2 °F 10.9 °F 1022.6 in Calm     92 % 0.0 in 0.0 W/m2 CLR
02:42 12.8 °F 11.5 °F 1022.9 in Calm     92 % 0.0 in 0.0 W/m2 CLR
02:47 12.8 °F 11.3 °F 1022.9 in Calm     91 % 0.0 in 0.0 W/m2 CLR
02:52 12.8 °F 11.5 °F 1022.9 in Calm     92 % 0.0 in 0.0 W/m2 CLR
02:57 12.8 °F 11.5 °F 1023.2 in Calm     92 % 0.0 in 0.0 W/m2 CLR
03:02 12.8 °F 11.5 °F 1023.2 in Calm     92 % 0.0 in 0.0 W/m2 CLR
03:07 12.8 °F 11.5 °F 1022.9 in Calm     92 % 0.0 in 0.0 W/m2 CLR
03:12 12.8 °F 11.5 °F 1022.9 in Calm     92 % 0.0 in 0.0 W/m2 CLR
03:17 12.8 °F 11.5 °F 1022.9 in Calm     92 % 0.0 in 0.0 W/m2 CLR
03:22 12.8 °F 11.5 °F 1022.9 in Calm     92 % 0.0 in 0.0 W/m2 CLR
03:27 12.2 °F 10.9 °F 1022.9 in Calm     92 % 0.0 in 0.0 W/m2 CLR
03:32 12.2 °F 10.9 °F 1022.9 in Calm     92 % 0.0 in 0.0 W/m2 CLR
03:37 12.2 °F 10.9 °F 1022.9 in Calm     92 % 0.0 in 0.0 W/m2 CLR
03:42 12.2 °F 10.9 °F 1022.6 in Calm     92 % 0.0 in 0.0 W/m2 CLR
03:47 12.2 °F 10.9 °F 1022.6 in Calm     92 % 0.0 in 0.0 W/m2 CLR
03:52 12.2 °F 10.9 °F 1022.9 in SE 9.3 mph 9.3 mph 92 % 0.0 in 0.0 W/m2 CLR
03:57 12.2 °F 10.9 °F 1022.9 in Calm     92 % 0.0 in 0.0 W/m2 CLR
04:02 12.2 °F 11.1 °F 1022.9 in Calm     93 % 0.0 in 0.0 W/m2 CLR
04:07 12.2 °F 10.9 °F 1022.9 in Calm     92 % 0.0 in 0.0 W/m2 CLR
04:12 12.8 °F 11.5 °F 1022.9 in Calm     92 % 0.0 in 0.0 W/m2 CLR
04:17 12.8 °F 11.5 °F 1022.9 in Calm     92 % 0.0 in 0.0 W/m2 CLR
04:22 12.2 °F 10.9 °F 1022.9 in Calm     92 % 0.0 in 0.0 W/m2 CLR
04:27 12.2 °F 11.1 °F 1022.9 in Calm     93 % 0.0 in 0.0 W/m2 CLR
04:32 12.2 °F 11.1 °F 1022.9 in Calm     93 % 0.0 in 0.0 W/m2 CLR
04:37 12.2 °F 10.9 °F 1022.9 in Calm     92 % 0.0 in 0.0 W/m2 CLR
04:42 11.7 °F 10.4 °F 1022.9 in Calm     92 % 0.0 in 0.0 W/m2 CLR
04:47 11.7 °F 10.6 °F 1022.9 in Calm     93 % 0.0 in 0.0 W/m2 CLR
04:52 11.7 °F 10.6 °F 1022.9 in Calm     93 % 0.0 in 0.0 W/m2 CLR
04:57 11.7 °F 10.6 °F 1022.9 in Calm     93 % 0.0 in 0.0 W/m2 CLR
05:02 11.7 °F 10.4 °F 1022.9 in Calm     92 % 0.0 in 0.0 W/m2 CLR
05:07 11.7 °F 10.4 °F 1022.9 in Calm     92 % 0.0 in 0.0 W/m2 CLR
05:12 11.1 °F 9.8 °F 1022.9 in Calm     92 % 0.0 in 0.0 W/m2 CLR
05:18 11.7 °F 10.4 °F 1022.9 in Calm     92 % 0.0 in 0.0 W/m2 CLR
05:23 11.1 °F 9.8 °F 1022.9 in Calm     92 % 0.0 in 0.0 W/m2 CLR
05:28 11.1 °F 9.8 °F 1023.2 in Calm     92 % 0.0 in 0.0 W/m2 CLR
05:33 11.1 °F 9.8 °F 1023.2 in Calm     92 % 0.0 in 0.0 W/m2 CLR
05:38 11.1 °F 10.0 °F 1023.2 in Calm     93 % 0.0 in 0.0 W/m2 CLR
05:43 11.1 °F 10.0 °F 1022.9 in Calm     93 % 0.0 in 0.0 W/m2 CLR
05:48 10.6 °F 9.4 °F 1022.9 in Calm     93 % 0.0 in 0.0 W/m2 CLR
05:53 10.6 °F 9.4 °F 1022.9 in Calm     93 % 0.0 in 0.0 W/m2 CLR
05:58 10.6 °F 9.4 °F 1023.2 in Calm     93 % 0.0 in 0.0 W/m2 CLR
06:03 10.6 °F 9.4 °F 1023.2 in Calm     93 % 0.0 in 0.0 W/m2 CLR
06:08 10.6 °F 9.4 °F 1023.2 in Calm     93 % 0.0 in 0.0 W/m2 CLR
06:13 10.0 °F 8.8 °F 1023.2 in Calm     92 % 0.0 in 0.0 W/m2 CLR
06:18 10.0 °F 8.8 °F 1023.2 in Calm     92 % 0.0 in 0.0 W/m2 CLR
06:23 10.0 °F 8.8 °F 1023.2 in Calm     92 % 0.0 in 0.0 W/m2 CLR
06:28 10.0 °F 8.9 °F 1022.9 in Calm     93 % 0.0 in 0.0 W/m2 CLR
06:33 10.0 °F 8.8 °F 1023.2 in Calm     92 % 0.0 in 0.0 W/m2 CLR
06:38 10.0 °F 8.8 °F 1023.2 in Calm     92 % 0.0 in 0.0 W/m2 CLR
06:43 10.0 °F 8.8 °F 1023.2 in Calm     92 % 0.0 in 0.0 W/m2 CLR
06:48 10.0 °F 8.9 °F 1023.2 in Calm     93 % 0.0 in 0.0 W/m2 CLR
06:53 10.0 °F 8.9 °F 1023.2 in Calm     93 % 0.0 in 0.0 W/m2 CLR
06:58 10.0 °F 8.9 °F 1023.2 in Calm     93 % 0.0 in 0.0 W/m2 CLR
07:03 10.0 °F 8.9 °F 1023.2 in Calm     93 % 0.0 in 0.0 W/m2 CLR
07:08 10.6 °F 9.4 °F 1023.2 in Calm     93 % 0.0 in 0.0 W/m2 CLR
07:13 11.1 °F 10.0 °F 1023.2 in Calm     93 % 0.0 in 0.0 W/m2 CLR
07:18 11.1 °F 10.0 °F 1023.2 in Calm     93 % 0.0 in 0.0 W/m2 CLR
07:23 11.1 °F 10.0 °F 1023.6 in Calm     93 % 0.0 in 0.0 W/m2 CLR
07:28 11.7 °F 10.6 °F 1023.6 in Calm     93 % 0.0 in 0.0 W/m2 CLR
07:33 11.7 °F 10.6 °F 1023.6 in Calm     93 % 0.0 in 0.0 W/m2 CLR
07:38 11.7 °F 10.6 °F 1023.6 in Calm     93 % 0.0 in 0.0 W/m2 OVC
07:43 11.7 °F 10.6 °F 1023.6 in Calm     93 % 0.0 in 0.0 W/m2 OVC
07:48 11.7 °F 10.6 °F 1023.6 in Calm     93 % 0.0 in 0.0 W/m2 OVC
07:53 11.7 °F 10.6 °F 1023.6 in Calm     93 % 0.0 in 0.0 W/m2 OVC
07:58 12.2 °F 11.1 °F 1023.6 in Calm     93 % 0.0 in 0.0 W/m2 OVC
08:03 12.2 °F 11.1 °F 1023.6 in Calm     93 % 0.0 in 7.0 W/m2 BKN
08:08 12.2 °F 11.1 °F 1023.6 in Calm     93 % 0.0 in 7.0 W/m2 BKN
08:13 12.2 °F 11.1 °F 1023.9 in Calm     93 % 0.0 in 7.0 W/m2 BKN
08:18 12.2 °F 11.1 °F 1023.6 in Calm     93 % 0.0 in 9.0 W/m2 BKN
08:23 12.2 °F 11.1 °F 1023.9 in Calm     93 % 0.0 in 9.0 W/m2 BKN
08:28 12.8 °F 11.7 °F 1023.9 in Calm     93 % 0.0 in 9.0 W/m2 BKN
08:33 12.8 °F 11.7 °F 1023.9 in Calm     93 % 0.0 in 11.0 W/m2 BKN
08:38 12.8 °F 11.7 °F 1023.9 in Calm     93 % 0.0 in 12.0 W/m2 BKN
08:43 12.8 °F 11.7 °F 1023.9 in Calm     93 % 0.0 in 14.0 W/m2 BKN
08:53 12.2 °F 11.1 °F 1023.9 in Calm     93 % 0.0 in 26.0 W/m2 BKN
08:59 12.8 °F 11.7 °F 1023.9 in Calm     93 % 0.0 in 30.0 W/m2 BKN
09:04 12.8 °F 11.7 °F 1023.9 in Calm     93 % 0.0 in 37.0 W/m2 BKN
09:06 12.8 °F 11.7 °F 1023.9 in Calm     93 % 0.0 in 58.0 W/m2 BKN
09:11 12.8 °F 11.7 °F 1023.9 in Calm     93 % 0.0 in 74.0 W/m2 SCT
09:16 12.8 °F 11.7 °F 1023.9 in Calm     93 % 0.0 in 83.0 W/m2 FEW
09:21 12.8 °F 11.7 °F 1024.3 in Calm     93 % 0.0 in 70.0 W/m2 FEW
09:26 12.8 °F 11.7 °F 1024.3 in Calm     93 % 0.0 in 77.0 W/m2 FEW
09:31 12.8 °F 11.7 °F 1024.3 in Calm     93 % 0.0 in 83.0 W/m2 FEW
09:36 13.3 °F 12.2 °F 1024.3 in Calm     93 % 0.0 in 120.0 W/m2 CLR
09:41 13.3 °F 12.2 °F 1024.3 in Calm     93 % 0.0 in 76.0 W/m2 CLR
09:46 13.3 °F 12.2 °F 1024.3 in Calm     93 % 0.0 in 81.0 W/m2 CLR
09:51 13.3 °F 12.2 °F 1024.3 in Calm     93 % 0.0 in 121.0 W/m2 CLR
09:56 13.3 °F 12.4 °F 1024.3 in Calm     94 % 0.0 in 121.0 W/m2 CLR
10:01 13.3 °F 12.2 °F 1024.3 in Calm     93 % 0.0 in 141.0 W/m2 CLR
10:06 13.9 °F 12.8 °F 1024.3 in Calm     93 % 0.0 in 151.0 W/m2 CLR
10:11 13.9 °F 12.9 °F 1024.3 in Calm     94 % 0.0 in 148.0 W/m2 CLR
10:16 13.9 °F 12.9 °F 1024.3 in Calm     94 % 0.0 in 135.0 W/m2 CLR
10:21 14.4 °F 13.3 °F 1024.3 in Calm     93 % 0.0 in 171.0 W/m2 CLR
10:26 14.4 °F 13.5 °F 1024.3 in Calm     94 % 0.0 in 190.0 W/m2 CLR
10:31 15.0 °F 14.1 °F 1024.3 in Calm     94 % 0.0 in 216.0 W/m2 CLR
10:36 15.0 °F 14.1 °F 1024.3 in Calm     94 % 0.0 in 216.0 W/m2 CLR
10:41 15.0 °F 14.1 °F 1024.3 in Calm     94 % 0.0 in 241.0 W/m2 CLR
10:46 15.0 °F 14.1 °F 1024.3 in Calm     94 % 0.0 in 244.0 W/m2 CLR
10:51 15.6 °F 14.4 °F 1024.3 in Calm     93 % 0.0 in 244.0 W/m2 CLR
10:56 15.6 °F 14.4 °F 1024.3 in Calm     93 % 0.0 in 255.0 W/m2 CLR
11:01 15.6 °F 14.4 °F 1024.3 in Calm     93 % 0.0 in 260.0 W/m2 CLR
11:06 15.6 °F 14.4 °F 1024.3 in Calm     93 % 0.0 in 253.0 W/m2 CLR
11:11 16.1 °F 15.0 °F 1024.3 in Calm   0.2 mph 93 % 0.0 in 287.0 W/m2 CLR
11:16 16.1 °F 15.0 °F 1024.3 in Calm     93 % 0.0 in 285.0 W/m2 CLR
11:21 16.1 °F 14.8 °F 1024.3 in Calm     92 % 0.0 in 287.0 W/m2 CLR
11:26 16.7 °F 15.3 °F 1024.3 in Calm     92 % 0.0 in 260.0 W/m2 CLR
11:31 17.2 °F 15.9 °F 1024.3 in NW 3.7 mph 3.7 mph 92 % 0.0 in 299.0 W/m2 CLR
11:36 17.2 °F 15.9 °F 1024.3 in Calm     92 % 0.0 in 673.0 W/m2 CLR
11:41 17.2 °F 15.7 °F 1024.3 in NNW 1.9 mph   91 % 0.0 in 399.0 W/m2 CLR
11:46 17.8 °F 16.1 °F 1024.3 in Calm     90 % 0.0 in 605.0 W/m2 CLR
11:51 17.8 °F 15.9 °F 1024.3 in Calm     89 % 0.0 in 626.0 W/m2 CLR
11:56 18.3 °F 16.1 °F 1023.9 in Calm     87 % 0.0 in 628.0 W/m2 CLR
12:01 18.3 °F 15.9 °F 1023.9 in NNW 3.7 mph 3.7 mph 86 % 0.0 in 633.0 W/m2 CLR
12:06 18.3 °F 15.8 °F 1023.9 in NNW 1.9 mph 1.9 mph 85 % 0.0 in 642.0 W/m2 CLR
12:11 18.3 °F 15.2 °F 1023.9 in NW 3.7 mph 3.7 mph 82 % 0.0 in 649.0 W/m2 CLR
12:16 18.9 °F 15.7 °F 1023.6 in NW 3.7 mph 3.7 mph 82 % 0.0 in 656.0 W/m2 CLR
12:21 18.9 °F 15.4 °F 1023.6 in NNW 8.0 mph 8.0 mph 80 % 0.0 in 664.0 W/m2 CLR
12:27 19.4 °F 15.9 °F 1023.6 in NW 9.7 mph 9.7 mph 80 % 0.0 in 671.0 W/m2 CLR
12:31 19.4 °F 15.9 °F 1023.6 in NNW 7.4 mph 7.4 mph 80 % 0.0 in 679.0 W/m2 CLR
12:36 19.4 °F 15.5 °F 1023.6 in NW 9.3 mph 9.3 mph 78 % 0.0 in 682.0 W/m2 CLR
12:37 19.4 °F 15.5 °F 1023.6 in NW 9.3 mph 9.3 mph 78 % 0.0 in 682.0 W/m2 CLR
12:42 20.0 °F 16.1 °F 1023.2 in NNW 13.0 mph 13.0 mph 78 % 0.0 in 687.0 W/m2 CLR
12:47 20.0 °F 15.8 °F 1023.2 in WNW 16.7 mph 16.7 mph 77 % 0.0 in 693.0 W/m2 CLR
12:52 20.0 °F 15.8 °F 1023.2 in NW 6.4 mph 6.4 mph 77 % 0.0 in 696.0 W/m2 CLR
12:57 20.0 °F 15.8 °F 1023.2 in NNW 13.0 mph 13.0 mph 77 % 0.0 in 703.0 W/m2 CLR
13:02 20.0 °F 15.7 °F 1023.2 in North 5.6 mph 5.6 mph 76 % 0.0 in 707.0 W/m2 CLR
13:07 20.6 °F 15.9 °F 1023.2 in North 13.0 mph 13.0 mph 75 % 0.0 in 714.0 W/m2 CLR
13:12 20.6 °F 15.8 °F 1023.2 in NNW 7.4 mph 7.4 mph 74 % 0.0 in 717.0 W/m2 CLR
13:17 20.6 °F 15.8 °F 1023.2 in NNW 14.8 mph 14.8 mph 74 % 0.0 in 719.0 W/m2 CLR
13:22 21.1 °F 16.1 °F 1023.2 in NNW 9.7 mph 9.7 mph 73 % 0.0 in 721.0 W/m2 CLR
13:27 21.1 °F 16.1 °F 1022.9 in North 11.1 mph 11.1 mph 73 % 0.0 in 722.0 W/m2 CLR
13:32 21.1 °F 15.9 °F 1022.9 in NNW 13.0 mph 13.0 mph 72 % 0.0 in 724.0 W/m2 CLR
13:37 21.1 °F 15.9 °F 1022.9 in WNW 7.4 mph 7.4 mph 72 % 0.0 in 728.0 W/m2 CLR
13:42 21.1 °F 15.9 °F 1022.9 in West 5.6 mph 5.6 mph 72 % 0.0 in 728.0 W/m2 CLR
13:47 21.7 °F 16.2 °F 1022.9 in NNE 9.3 mph 9.3 mph 71 % 0.0 in 729.0 W/m2 CLR
13:52 21.7 °F 15.9 °F 1022.6 in NW 5.6 mph 5.6 mph 70 % 0.0 in 729.0 W/m2 CLR
13:57 22.2 °F 16.3 °F 1022.6 in NNW 12.9 mph 12.9 mph 69 % 0.0 in 728.0 W/m2 CLR
14:02 22.2 °F 16.3 °F 1022.6 in NNW 9.3 mph 9.3 mph 69 % 0.0 in 724.0 W/m2 CLR
14:07 22.2 °F 16.1 °F 1022.6 in NW 9.3 mph 9.3 mph 68 % 0.0 in 726.0 W/m2 CLR
14:12 22.8 °F 16.3 °F 1022.2 in North 14.8 mph 14.8 mph 67 % 0.0 in 724.0 W/m2 CLR
14:17 22.8 °F 16.1 °F 1022.2 in NNW 7.4 mph 7.4 mph 66 % 0.0 in 722.0 W/m2 CLR
14:22 22.8 °F 16.1 °F 1022.2 in NNW 13.0 mph 13.0 mph 66 % 0.0 in 721.0 W/m2 CLR
14:27 23.3 °F 16.6 °F 1022.2 in North 8.0 mph 8.0 mph 66 % 0.0 in 717.0 W/m2 CLR
14:32 23.3 °F 16.4 °F 1022.2 in Calm     65 % 0.0 in 717.0 W/m2 CLR
14:37 23.3 °F 16.1 °F 1022.2 in NW 5.6 mph 5.6 mph 64 % 0.0 in 712.0 W/m2 CLR
14:42 23.9 °F 16.9 °F 1021.9 in Calm     65 % 0.0 in 708.0 W/m2 CLR
14:47 23.9 °F 16.7 °F 1021.9 in NW 14.8 mph 14.8 mph 64 % 0.0 in 705.0 W/m2 CLR
14:52 24.4 °F 17.2 °F 1021.9 in NNW 1.6 mph   64 % 0.0 in 700.0 W/m2 CLR
14:57 24.4 °F 16.7 °F 1021.6 in NW 5.6 mph 5.6 mph 62 % 0.0 in 696.0 W/m2 CLR
15:02 24.4 °F 16.7 °F 1021.6 in NW 9.3 mph 9.3 mph 62 % 0.0 in 689.0 W/m2 CLR
15:07 24.4 °F 16.4 °F 1021.6 in NNW 14.8 mph 14.8 mph 61 % 0.0 in 686.0 W/m2 CLR
15:12 24.4 °F 16.4 °F 1021.6 in WNW 5.6 mph   61 % 0.0 in 679.0 W/m2 CLR
15:17 25.0 °F 16.4 °F 1021.6 in WNW 13.0 mph 13.0 mph 59 % 0.0 in 671.0 W/m2 CLR
15:22 25.0 °F 16.2 °F 1021.6 in NW 13.0 mph 13.0 mph 58 % 0.0 in 664.0 W/m2 CLR
15:27 25.0 °F 16.7 °F 1021.6 in West 14.8 mph 14.8 mph 60 % 0.0 in 656.0 W/m2 CLR
15:32 25.0 °F 16.4 °F 1021.2 in West 13.0 mph 13.0 mph 59 % 0.0 in 652.0 W/m2 CLR
15:37 25.0 °F 15.9 °F 1021.2 in Calm     57 % 0.0 in 647.0 W/m2 CLR
15:42 25.6 °F 16.4 °F 1021.2 in WNW 6.4 mph 6.4 mph 57 % 0.0 in 638.0 W/m2 CLR
15:47 26.1 °F 16.7 °F 1021.2 in WNW 6.4 mph 6.4 mph 56 % 0.0 in 628.0 W/m2 CLR
15:52 25.6 °F 15.6 °F 1020.9 in West 13.0 mph 13.0 mph 54 % 0.0 in 619.0 W/m2 CLR
15:57 25.6 °F 15.6 °F 1020.9 in West 11.1 mph 11.1 mph 54 % 0.0 in 610.0 W/m2 CLR
16:02 25.6 °F 15.6 °F 1020.9 in WNW 11.3 mph 11.3 mph 54 % 0.0 in 601.0 W/m2 CLR
16:07 25.6 °F 14.9 °F 1020.9 in West 5.6 mph   52 % 0.0 in 591.0 W/m2 CLR
16:12 25.6 °F 15.3 °F 1020.9 in Calm     53 % 0.0 in 584.0 W/m2 CLR
16:17 25.6 °F 14.9 °F 1020.9 in Calm     52 % 0.0 in 571.0 W/m2 CLR
16:22 26.1 °F 15.2 °F 1020.9 in North 6.4 mph 6.4 mph 51 % 0.0 in 538.0 W/m2 CLR
16:27 25.6 °F 14.1 °F 1020.9 in NNE 5.6 mph 5.6 mph 49 % 0.0 in 545.0 W/m2 CLR
16:32 25.6 °F 14.1 °F 1020.9 in Calm     49 % 0.0 in 531.0 W/m2 CLR
16:37 26.1 °F 14.2 °F 1020.5 in Calm     48 % 0.0 in 522.0 W/m2 CLR
16:42 26.7 °F 14.7 °F 1020.5 in Calm     48 % 0.0 in 512.0 W/m2 CLR
16:47 27.2 °F 14.9 °F 1020.5 in Calm     47 % 0.0 in 501.0 W/m2 CLR
16:52 27.2 °F 14.9 °F 1020.5 in NW 8.0 mph 8.0 mph 47 % 0.0 in 485.0 W/m2 CLR
16:57 26.7 °F 14.1 °F 1020.5 in WNW 3.7 mph 3.7 mph 46 % 0.0 in 469.0 W/m2 CLR
17:02 26.1 °F 13.9 °F 1020.5 in NW 5.6 mph   47 % 0.0 in 455.0 W/m2 CLR
17:07 26.1 °F 13.2 °F 1020.5 in Calm     45 % 0.0 in 443.0 W/m2 CLR
17:12 26.7 °F 13.7 °F 1020.2 in Calm     45 % 0.0 in 429.0 W/m2 CLR
17:18 26.7 °F 13.4 °F 1020.2 in NW 5.6 mph   44 % 0.0 in 417.0 W/m2 CLR
17:22 26.7 °F 13.4 °F 1020.2 in Calm     44 % 0.0 in 397.0 W/m2 CLR
17:23 26.7 °F 13.4 °F 1020.2 in Calm     44 % 0.0 in 397.0 W/m2 CLR
17:28 26.1 °F 12.6 °F 1020.2 in NW 13.0 mph 13.0 mph 43 % 0.0 in 387.0 W/m2 CLR
17:33 26.1 °F 12.6 °F 1020.2 in Calm     43 % 0.0 in 373.0 W/m2 CLR
17:38 26.1 °F 12.2 °F 1020.2 in Calm   0.2 mph 42 % 0.0 in 359.0 W/m2 CLR
17:43 26.1 °F 11.4 °F 1020.2 in NNW 1.9 mph   40 % 0.0 in 346.0 W/m2 CLR
17:48 26.1 °F 11.8 °F 1020.2 in North 5.6 mph 5.6 mph 41 % 0.0 in 327.0 W/m2 CLR
17:53 26.1 °F 11.8 °F 1020.2 in NNW 7.4 mph 7.4 mph 41 % 0.0 in 313.0 W/m2 CLR
17:58 25.6 °F 11.3 °F 1020.2 in NNW 13.0 mph 13.0 mph 41 % 0.0 in 299.0 W/m2 CLR
18:03 25.6 °F 10.9 °F 1020.2 in Calm     40 % 0.0 in 285.0 W/m2 CLR
18:08 25.6 °F 10.6 °F 1020.2 in Calm     39 % 0.0 in 271.0 W/m2 CLR
18:13 25.6 °F 10.6 °F 1020.2 in Calm     39 % 0.0 in 253.0 W/m2 CLR
18:18 25.6 °F 10.9 °F 1020.2 in WNW 5.6 mph 5.6 mph 40 % 0.0 in 237.0 W/m2 CLR
18:23 25.6 °F 11.3 °F 1020.2 in NNW 9.3 mph 9.3 mph 41 % 0.0 in 220.0 W/m2 CLR
18:28 25.0 °F 10.8 °F 1020.2 in NW 5.6 mph 5.6 mph 41 % 0.0 in 200.0 W/m2 CLR
18:33 25.0 °F 11.2 °F 1020.2 in NNW 1.9 mph 1.9 mph 42 % 0.0 in 186.0 W/m2 CLR
18:38 24.4 °F 10.3 °F 1020.2 in NW 5.6 mph 5.6 mph 41 % 0.0 in 165.0 W/m2 CLR
18:43 24.4 °F 11.1 °F 1020.2 in NW 1.9 mph 1.9 mph 43 % 0.0 in 148.0 W/m2 CLR
18:48 24.4 °F 11.4 °F 1020.2 in Calm     44 % 0.0 in 132.0 W/m2 CLR
18:53 24.4 °F 11.4 °F 1020.2 in NW 5.6 mph 5.6 mph 44 % 0.0 in 114.0 W/m2 CLR
18:58 23.9 °F 10.6 °F 1020.2 in NW 5.6 mph 5.6 mph 43 % 0.0 in 98.0 W/m2 CLR
19:03 23.9 °F 12.8 °F 1020.2 in North 18.5 mph 18.5 mph 50 % 0.0 in 84.0 W/m2 FEW
19:08 23.9 °F 13.7 °F 1020.2 in NE 16.7 mph 16.7 mph 53 % 0.0 in 70.0 W/m2 FEW
19:13 23.9 °F 14.3 °F 1020.2 in NNE 13.0 mph 13.0 mph 55 % 0.0 in 54.0 W/m2 SCT
19:18 23.9 °F 14.3 °F 1020.2 in NE 14.8 mph 14.8 mph 55 % 0.0 in 46.0 W/m2 SCT
19:23 23.3 °F 14.3 °F 1020.2 in NE 11.1 mph 11.1 mph 57 % 0.0 in 35.0 W/m2 BKN
19:28 23.3 °F 14.6 °F 1020.2 in NE 14.8 mph 14.8 mph 58 % 0.0 in 26.0 W/m2 BKN
19:33 22.8 °F 14.3 °F 1020.2 in NE 6.4 mph 6.4 mph 59 % 0.0 in 19.0 W/m2 BKN
19:38 22.2 °F 14.1 °F 1020.2 in ENE 9.3 mph 9.3 mph 60 % 0.0 in 16.0 W/m2 BKN
19:43 22.2 °F 14.1 °F 1020.2 in NE 7.4 mph 7.4 mph 60 % 0.0 in 12.0 W/m2 BKN
19:48 21.7 °F 13.8 °F 1020.2 in ENE 9.3 mph 9.3 mph 61 % 0.0 in 9.0 W/m2 BKN
19:53 21.7 °F 13.8 °F 1020.2 in Calm     61 % 0.0 in 5.0 W/m2 OVC
19:58 21.1 °F 13.6 °F 1020.2 in Calm     62 % 0.0 in 0.0 W/m2 OVC
20:03 20.6 °F 13.0 °F 1020.5 in East 4.8 mph 4.8 mph 62 % 0.0 in 0.0 W/m2 CLR
20:08 20.6 °F 13.0 °F 1020.5 in East 13.0 mph 13.0 mph 62 % 0.0 in 0.0 W/m2 CLR
20:13 20.0 °F 12.5 °F 1020.5 in East 7.4 mph   62 % 0.0 in 0.0 W/m2 CLR
20:18 19.4 °F 11.9 °F 1020.5 in Calm     62 % 0.0 in 0.0 W/m2 CLR
20:23 19.4 °F 12.2 °F 1020.5 in East 11.1 mph 11.1 mph 63 % 0.0 in 0.0 W/m2 CLR
20:28 18.9 °F 11.7 °F 1020.5 in Calm     63 % 0.0 in 0.0 W/m2 CLR
20:33 18.3 °F 11.4 °F 1020.5 in Calm     64 % 0.0 in 0.0 W/m2 CLR
20:38 18.3 °F 11.4 °F 1020.5 in Calm     64 % 0.0 in 0.0 W/m2 CLR
20:43 17.8 °F 10.9 °F 1020.5 in Calm     64 % 0.0 in 0.0 W/m2 CLR
20:48 17.8 °F 11.1 °F 1020.9 in Calm     65 % 0.0 in 0.0 W/m2 CLR
20:53 17.2 °F 11.1 °F 1020.5 in Calm     67 % 0.0 in 0.0 W/m2 CLR
20:58 16.7 °F 10.5 °F 1020.9 in Calm     67 % 0.0 in 0.0 W/m2 CLR
21:03 16.7 °F 10.7 °F 1020.9 in Calm     68 % 0.0 in 0.0 W/m2 CLR
21:08 16.1 °F 10.4 °F 1020.9 in Calm     69 % 0.0 in 0.0 W/m2 CLR
21:13 16.1 °F 10.4 °F 1020.9 in Calm     69 % 0.0 in 0.0 W/m2 CLR
21:18 16.1 °F 10.4 °F 1020.9 in Calm     69 % 0.0 in 0.0 W/m2 CLR
21:24 16.1 °F 10.6 °F 1020.9 in Calm     70 % 0.0 in 0.0 W/m2 CLR
21:29 15.6 °F 10.5 °F 1020.9 in Calm     72 % 0.0 in 0.0 W/m2 CLR
21:34 15.6 °F 10.5 °F 1021.2 in Calm     72 % 0.0 in 0.0 W/m2 CLR
21:39 15.6 °F 10.5 °F 1021.2 in Calm     72 % 0.0 in 0.0 W/m2 CLR
21:44 15.6 °F 10.3 °F 1021.2 in Calm     71 % 0.0 in 0.0 W/m2 CLR
21:49 15.6 °F 10.5 °F 1021.2 in Calm     72 % 0.0 in 0.0 W/m2 CLR
21:54 15.6 °F 10.7 °F 1021.2 in Calm     73 % 0.0 in 0.0 W/m2 CLR
21:59 15.6 °F 10.9 °F 1021.2 in Calm     74 % 0.0 in 0.0 W/m2 CLR
22:04 15.0 °F 10.4 °F 1021.2 in Calm     74 % 0.0 in 0.0 W/m2 CLR
22:05 15.0 °F 10.4 °F 1021.2 in Calm     74 % 0.0 in 0.0 W/m2 CLR
22:10 15.0 °F 10.6 °F 1021.2 in Calm     75 % 0.0 in 0.0 W/m2 CLR
22:15 15.0 °F 10.6 °F 1021.2 in Calm     75 % 0.0 in 0.0 W/m2 CLR
22:20 15.0 °F 10.8 °F 1021.2 in Calm     76 % 0.0 in 0.0 W/m2 CLR
22:25 15.0 °F 11.0 °F 1021.6 in Calm     77 % 0.0 in 0.0 W/m2 CLR
22:30 14.4 °F 10.3 °F 1021.6 in Calm     76 % 0.0 in 0.0 W/m2 CLR
22:35 14.4 °F 10.4 °F 1021.6 in Calm     77 % 0.0 in 0.0 W/m2 CLR
22:40 14.4 °F 10.4 °F 1021.6 in Calm     77 % 0.0 in 0.0 W/m2 CLR
22:45 14.4 °F 10.7 °F 1021.6 in Calm     78 % 0.0 in 0.0 W/m2 CLR
22:50 14.4 °F 10.7 °F 1021.6 in Calm     78 % 0.0 in 0.0 W/m2 CLR
22:55 14.4 °F 10.8 °F 1021.6 in Calm     79 % 0.0 in 0.0 W/m2 CLR
23:00 14.4 °F 10.8 °F 1021.6 in Calm     79 % 0.0 in 0.0 W/m2 CLR
23:05 13.9 °F 10.5 °F 1021.6 in Calm     80 % 0.0 in 0.0 W/m2 CLR
23:10 13.9 °F 10.5 °F 1021.6 in Calm     80 % 0.0 in 0.0 W/m2 CLR
23:15 13.9 °F 10.7 °F 1021.6 in Calm     81 % 0.0 in 0.0 W/m2 CLR
23:20 13.9 °F 10.7 °F 1021.6 in Calm     81 % 0.0 in 0.0 W/m2 CLR
23:25 13.9 °F 10.7 °F 1021.6 in Calm     81 % 0.0 in 0.0 W/m2 CLR
23:30 13.9 °F 10.9 °F 1021.6 in Calm     82 % 0.0 in 0.0 W/m2 CLR
23:35 13.9 °F 10.9 °F 1021.6 in Calm     82 % 0.0 in 0.0 W/m2 CLR
23:40 13.9 °F 10.9 °F 1021.6 in Calm     82 % 0.0 in 0.0 W/m2 CLR
23:45 13.9 °F 10.9 °F 1021.6 in Calm     82 % 0.0 in 0.0 W/m2 CLR
23:50 13.9 °F 11.1 °F 1021.9 in Calm     83 % 0.0 in 0.0 W/m2 CLR
23:55 13.9 °F 11.2 °F 1021.9 in Calm     84 % 0.0 in 0.0 W/m2 CLR
Lo Temps de Massalio
Compliments of Weather Underground - 1.25 mb